createdAt,value
2019-02-15T00:02:03.445Z,73.03
2019-02-15T00:04:34.966Z,83.77
2019-02-15T00:07:05.971Z,75.80
2019-02-15T00:09:37.124Z,77.20
2019-02-15T00:12:08.199Z,74.63
2019-02-15T00:14:49.591Z,74.47
2019-02-15T00:17:38.636Z,80.40
2019-02-15T00:20:15.095Z,75.97
2019-02-15T00:22:48.637Z,77.60
2019-02-15T00:25:19.690Z,75.20
2019-02-15T00:27:50.655Z,66.07
2019-02-15T00:30:21.695Z,77.60
2019-02-15T00:32:52.612Z,80.67
2019-02-15T00:35:23.779Z,79.90
2019-02-15T00:37:54.914Z,77.90
2019-02-15T00:40:25.963Z,76.87
2019-02-15T00:42:56.986Z,78.93
2019-02-15T00:45:30.691Z,80.57
2019-02-15T00:48:12.056Z,73.03
2019-02-15T00:51:17.298Z,76.23
2019-02-15T00:54:10.480Z,78.83
2019-02-15T00:57:07.530Z,78.30
2019-02-15T00:59:49.861Z,88.80
2019-02-15T01:02:29.405Z,74.77
2019-02-15T01:05:31.583Z,77.17
2019-02-15T01:08:21.893Z,84.43
2019-02-15T01:11:14.497Z,81.77
2019-02-15T01:13:45.649Z,93.23
2019-02-15T01:16:17.266Z,88.40
2019-02-15T01:18:48.666Z,99.90
2019-02-15T01:21:19.812Z,95.90
2019-02-15T01:23:50.914Z,81.10
2019-02-15T01:26:39.864Z,79.37
2019-02-15T01:29:28.555Z,81.97
2019-02-15T01:32:18.328Z,83.93
2019-02-15T01:35:06.669Z,82.30
2019-02-15T01:37:48.469Z,80.87
2019-02-15T01:40:37.303Z,85.70
2019-02-15T01:43:28.947Z,88.77
2019-02-15T01:46:13.158Z,79.57
2019-02-15T01:48:47.189Z,90.30
2019-02-15T01:51:18.242Z,78.53
2019-02-15T01:53:49.226Z,85.43
2019-02-15T01:56:20.293Z,84.37
2019-02-15T01:58:51.199Z,76.03
2019-02-15T02:01:25.010Z,65.93
2019-02-15T02:03:56.092Z,72.53
2019-02-15T02:06:29.386Z,72.70
2019-02-15T02:09:02.940Z,77.43
2019-02-15T02:11:35.721Z,83.20
2019-02-15T02:14:07.200Z,83.73
2019-02-15T02:16:38.262Z,88.00
2019-02-15T02:19:09.167Z,81.33
2019-02-15T02:21:40.164Z,80.93
2019-02-15T02:24:11.060Z,85.33
2019-02-15T02:26:42.053Z,84.83
2019-02-15T02:29:14.003Z,99.60
2019-02-15T02:31:45.121Z,92.20
2019-02-15T02:34:16.236Z,92.53
2019-02-15T02:36:51.619Z,86.80
2019-02-15T02:39:22.694Z,83.77
2019-02-15T02:41:59.279Z,85.07
2019-02-15T02:44:30.353Z,72.47
2019-02-15T02:47:01.769Z,94.80
2019-02-15T02:49:32.793Z,85.77
2019-02-15T02:52:04.868Z,86.60
2019-02-15T02:54:35.896Z,72.10
2019-02-15T02:57:07.991Z,96.63
2019-02-15T02:59:38.977Z,83.20
2019-02-15T03:02:09.974Z,99.57
2019-02-15T03:04:41.049Z,97.23
2019-02-15T03:07:12.077Z,103.13
2019-02-15T03:09:44.822Z,84.87
2019-02-15T03:12:16.083Z,89.70
2019-02-15T03:14:47.346Z,81.17
2019-02-15T03:17:18.550Z,74.97
2019-02-15T03:19:49.468Z,72.67
2019-02-15T03:22:22.165Z,71.00
2019-02-15T03:24:53.065Z,69.07
2019-02-15T03:27:24.276Z,77.80
2019-02-15T03:29:56.435Z,84.87
2019-02-15T03:32:27.561Z,70.63
2019-02-15T03:34:58.551Z,88.37
2019-02-15T03:37:46.948Z,83.27
2019-02-15T03:40:21.947Z,86.93
2019-02-15T03:42:53.133Z,89.73
2019-02-15T03:45:24.017Z,77.77
2019-02-15T03:47:55.124Z,74.93
2019-02-15T03:50:26.080Z,81.57
2019-02-15T03:52:57.160Z,76.60
2019-02-15T03:55:28.173Z,80.03
2019-02-15T03:57:59.741Z,88.27
2019-02-15T04:00:31.380Z,77.70
2019-02-15T04:03:03.224Z,78.53
2019-02-15T04:05:34.849Z,85.33
2019-02-15T04:08:06.599Z,81.50
2019-02-15T04:10:37.721Z,76.30
2019-02-15T04:13:08.746Z,80.83
2019-02-15T04:15:39.872Z,84.27
2019-02-15T04:18:11.410Z,96.73
2019-02-15T04:20:43.037Z,88.03
2019-02-15T04:23:14.849Z,83.27
2019-02-15T04:25:45.839Z,78.13
2019-02-15T04:28:17.190Z,85.87
2019-02-15T04:30:54.420Z,88.93
2019-02-15T04:36:16.839Z,87.40
2019-02-15T04:38:47.671Z,76.73
2019-02-15T04:41:18.580Z,73.37
2019-02-15T04:43:49.445Z,88.23
2019-02-15T04:46:20.440Z,73.67
2019-02-15T04:48:51.366Z,84.40
2019-02-15T04:54:13.556Z,83.50
2019-02-15T04:56:46.759Z,77.87
2019-02-15T04:59:17.677Z,83.30
2019-02-15T05:01:48.456Z,88.37
2019-02-15T05:04:19.246Z,80.03
2019-02-15T05:06:59.708Z,82.73
2019-02-15T05:09:34.058Z,82.07
2019-02-15T05:12:05.437Z,80.07
2019-02-15T05:14:36.458Z,86.20
2019-02-15T05:17:07.546Z,279.23
2019-02-15T05:19:38.605Z,86.80
2019-02-15T05:22:09.806Z,99.40
2019-02-15T05:24:40.855Z,114.83
2019-02-15T05:27:11.975Z,99.70
2019-02-15T05:29:42.895Z,138.03
2019-02-15T05:32:13.996Z,111.20
2019-02-15T05:34:46.145Z,112.47
2019-02-15T05:37:17.338Z,105.17
2019-02-15T05:39:48.453Z,94.73
2019-02-15T05:42:19.398Z,89.17
2019-02-15T05:44:50.614Z,91.00
2019-02-15T05:47:21.579Z,94.27
2019-02-15T05:49:52.535Z,90.60
2019-02-15T05:52:23.565Z,87.30
2019-02-15T05:54:54.528Z,93.83
2019-02-15T05:57:25.485Z,81.77
2019-02-15T05:59:56.544Z,94.53
2019-02-15T06:02:27.519Z,96.77
2019-02-15T06:04:58.456Z,88.63
2019-02-15T06:07:29.390Z,93.53
2019-02-15T06:10:00.338Z,100.87
2019-02-15T06:12:31.386Z,95.43
2019-02-15T06:15:02.500Z,95.63
2019-02-15T06:17:33.620Z,95.20
2019-02-15T06:20:04.783Z,96.03
2019-02-15T06:22:35.980Z,89.07
2019-02-15T06:25:07.154Z,88.63
2019-02-15T06:27:38.243Z,99.73
2019-02-15T06:30:09.717Z,77.87
2019-02-15T06:32:40.740Z,87.10
2019-02-15T06:35:11.737Z,75.03
2019-02-15T06:37:42.811Z,81.67
2019-02-15T06:40:14.061Z,78.93
2019-02-15T06:42:45.089Z,83.73
2019-02-15T06:45:24.233Z,80.57
2019-02-15T06:47:48.866Z,87.47
2019-02-15T06:50:19.899Z,75.13
2019-02-15T06:52:50.970Z,89.30
2019-02-15T06:55:22.030Z,79.70
2019-02-15T06:57:53.202Z,75.43
2019-02-15T07:00:42.921Z,80.70
2019-02-15T07:03:24.380Z,94.37
2019-02-15T07:05:55.499Z,73.17
2019-02-15T07:08:26.549Z,73.80
2019-02-15T07:10:57.580Z,81.27
2019-02-15T07:13:28.709Z,77.67
2019-02-15T07:15:59.788Z,67.93
2019-02-15T07:18:30.844Z,76.07
2019-02-15T07:21:04.201Z,71.67
2019-02-15T07:23:35.906Z,76.77
2019-02-15T07:26:07.427Z,78.40
2019-02-15T07:28:38.473Z,74.63
2019-02-15T07:31:09.611Z,77.63
2019-02-15T07:33:41.139Z,72.93
2019-02-15T07:36:12.175Z,84.87
2019-02-15T07:38:43.728Z,65.03
2019-02-15T07:41:14.695Z,66.87
2019-02-15T07:43:45.706Z,77.57
2019-02-15T07:46:16.667Z,76.80
2019-02-15T07:48:47.649Z,75.03
2019-02-15T07:51:19.235Z,67.17
2019-02-15T07:53:50.872Z,72.17
2019-02-15T07:56:21.989Z,67.23
2019-02-15T07:58:53.838Z,58.57
2019-02-15T08:01:25.617Z,61.57
2019-02-15T08:03:58.439Z,66.07
2019-02-15T08:06:30.117Z,64.93
2019-02-15T08:09:01.815Z,62.03
2019-02-15T08:11:34.817Z,55.80
2019-02-15T08:14:14.649Z,45.23
2019-02-15T08:16:40.166Z,58.43
2019-02-15T08:19:12.570Z,47.73
2019-02-15T08:21:44.362Z,55.60
2019-02-15T08:24:16.092Z,55.97
2019-02-15T08:26:47.781Z,56.90
2019-02-15T08:29:19.120Z,60.73
2019-02-15T08:31:50.832Z,55.40
2019-02-15T08:34:22.615Z,45.87
2019-02-15T08:36:54.316Z,52.50
2019-02-15T08:39:26.003Z,54.10
2019-02-15T08:42:03.830Z,53.67
2019-02-15T08:44:30.949Z,57.23
2019-02-15T08:47:02.715Z,56.10
2019-02-15T08:49:34.461Z,60.73
2019-02-15T08:52:06.280Z,57.07
2019-02-15T08:54:37.877Z,61.73
2019-02-15T08:57:09.406Z,56.77
2019-02-15T08:59:41.092Z,59.80
2019-02-15T09:02:19.711Z,58.03
2019-02-15T09:04:51.227Z,58.07
2019-02-15T09:07:23.076Z,55.93
2019-02-15T09:09:55.117Z,56.03
2019-02-15T09:12:26.677Z,44.20
2019-02-15T09:14:58.497Z,55.43
2019-02-15T09:17:29.589Z,47.67
2019-02-15T09:20:01.527Z,49.30
2019-02-15T09:22:33.280Z,49.93
2019-02-15T09:25:05.343Z,48.87
2019-02-15T09:27:41.735Z,48.47
2019-02-15T09:30:15.082Z,49.73
2019-02-15T09:32:46.720Z,56.93
2019-02-15T09:35:18.481Z,48.23
2019-02-15T09:37:50.644Z,47.47
2019-02-15T09:40:21.827Z,53.63
2019-02-15T09:42:53.508Z,46.90
2019-02-15T09:45:25.280Z,45.93
2019-02-15T09:47:56.374Z,50.17
2019-02-15T09:50:27.953Z,47.77
2019-02-15T09:53:00.040Z,49.10
2019-02-15T09:55:32.965Z,56.33
2019-02-15T09:58:05.204Z,50.87
2019-02-15T10:00:36.910Z,53.47
2019-02-15T10:03:08.430Z,53.90
2019-02-15T10:05:40.585Z,50.37
2019-02-15T10:08:11.802Z,34.43
2019-02-15T10:10:43.934Z,55.13
2019-02-15T10:13:15.593Z,47.70
2019-02-15T10:15:47.247Z,51.87
2019-02-15T10:18:19.363Z,45.90
2019-02-15T10:20:51.145Z,44.90
2019-02-15T10:23:22.928Z,45.53
2019-02-15T10:25:54.733Z,42.70
2019-02-15T10:28:26.362Z,43.10
2019-02-15T10:30:58.029Z,42.73
2019-02-15T10:33:29.817Z,46.80
2019-02-15T10:36:01.090Z,40.10
2019-02-15T10:38:32.735Z,48.73
2019-02-15T10:41:04.600Z,42.47
2019-02-15T10:43:36.134Z,48.43
2019-02-15T10:46:07.818Z,39.47
2019-02-15T10:48:40.651Z,46.37
2019-02-15T10:51:12.698Z,41.83
2019-02-15T10:53:45.387Z,47.37
2019-02-15T10:56:16.459Z,41.70
2019-02-15T10:58:48.064Z,40.60
2019-02-15T11:01:19.868Z,45.93
2019-02-15T11:03:50.905Z,44.93
2019-02-15T11:06:22.527Z,47.33
2019-02-15T11:08:53.576Z,40.87
2019-02-15T11:11:25.282Z,40.80
2019-02-15T11:13:57.017Z,45.20
2019-02-15T11:16:29.296Z,46.37
2019-02-15T11:19:00.859Z,41.17
2019-02-15T11:21:31.976Z,41.70
2019-02-15T11:24:03.684Z,44.63
2019-02-15T11:26:35.479Z,45.67
2019-02-15T11:29:06.824Z,46.67
2019-02-15T11:31:38.686Z,45.90
2019-02-15T11:34:10.318Z,43.17
2019-02-15T11:36:42.590Z,41.80
2019-02-15T11:39:13.863Z,37.63
2019-02-15T11:41:45.686Z,38.70
2019-02-15T11:44:17.413Z,42.53
2019-02-15T11:46:56.570Z,41.27
2019-02-15T11:49:22.361Z,34.93
2019-02-15T11:51:54.125Z,38.70
2019-02-15T11:54:26.394Z,36.50
2019-02-15T11:56:58.389Z,39.83
2019-02-15T11:59:32.492Z,34.23
2019-02-15T12:02:06.316Z,33.80
2019-02-15T12:04:37.329Z,37.40
2019-02-15T12:07:09.210Z,33.70
2019-02-15T12:09:40.887Z,31.97
2019-02-15T12:12:12.665Z,27.97
2019-02-15T12:14:44.364Z,33.27
2019-02-15T12:17:16.314Z,38.10
2019-02-15T12:19:47.488Z,38.03
2019-02-15T12:22:18.599Z,36.53
2019-02-15T12:24:50.320Z,33.30
2019-02-15T12:27:22.517Z,26.23
2019-02-15T12:29:54.094Z,29.37
2019-02-15T12:32:25.978Z,27.87
2019-02-15T12:34:57.791Z,23.33
2019-02-15T12:37:29.468Z,28.70
2019-02-15T12:40:00.936Z,28.53
2019-02-15T12:42:33.236Z,27.03
2019-02-15T12:45:05.158Z,26.40
2019-02-15T12:47:36.476Z,23.60
2019-02-15T12:50:10.647Z,20.97
2019-02-15T12:52:42.425Z,26.93
2019-02-15T12:55:15.263Z,29.60
2019-02-15T12:57:47.080Z,25.53
2019-02-15T13:00:19.905Z,31.33
2019-02-15T13:02:52.319Z,29.50
2019-02-15T13:05:24.226Z,35.37
2019-02-15T13:07:56.180Z,35.17
2019-02-15T13:10:28.633Z,33.53
2019-02-15T13:13:00.221Z,47.17
2019-02-15T13:15:31.379Z,40.00
2019-02-15T13:18:03.088Z,39.57
2019-02-15T13:20:34.921Z,41.27
2019-02-15T13:23:06.840Z,43.13
2019-02-15T13:25:38.190Z,45.67
2019-02-15T13:28:09.849Z,47.77
2019-02-15T13:30:41.753Z,43.00
2019-02-15T13:33:13.495Z,43.10
2019-02-15T13:35:45.264Z,30.93
2019-02-15T13:38:16.897Z,33.53
2019-02-15T13:40:48.730Z,39.93
2019-02-15T13:43:19.837Z,37.93
2019-02-15T13:45:50.803Z,43.30
2019-02-15T13:48:21.807Z,37.57
2019-02-15T13:50:53.391Z,41.80
2019-02-15T13:53:25.229Z,37.77
2019-02-15T13:55:57.015Z,36.70
2019-02-15T13:58:29.038Z,36.00
2019-02-15T14:01:01.174Z,36.57
2019-02-15T14:03:34.178Z,34.23
2019-02-15T14:06:06.082Z,41.17
2019-02-15T14:08:38.006Z,47.57
2019-02-15T14:11:09.815Z,48.30
2019-02-15T14:13:41.562Z,47.07
2019-02-15T14:16:13.293Z,39.80
2019-02-15T14:18:44.472Z,38.50
2019-02-15T14:21:15.970Z,33.40
2019-02-15T14:23:47.635Z,34.80
2019-02-15T14:26:19.202Z,40.17
2019-02-15T14:28:50.885Z,41.90
2019-02-15T14:31:22.403Z,44.57
2019-02-15T14:33:54.154Z,44.73
2019-02-15T14:36:25.671Z,45.97
2019-02-15T14:38:57.281Z,37.60
2019-02-15T14:41:29.011Z,40.03
2019-02-15T14:44:00.101Z,41.10
2019-02-15T14:46:31.691Z,36.30
2019-02-15T14:49:02.964Z,45.07
2019-02-15T14:51:33.900Z,47.13
2019-02-15T14:54:05.025Z,37.77
2019-02-15T14:56:36.255Z,41.23
2019-02-15T14:59:07.312Z,36.30
2019-02-15T15:01:38.204Z,39.87
2019-02-15T15:04:09.463Z,43.67
2019-02-15T15:06:41.119Z,27.40
2019-02-15T15:09:12.989Z,33.80
2019-02-15T15:11:44.729Z,38.13
2019-02-15T15:14:16.547Z,38.27
2019-02-15T15:16:47.636Z,53.40
2019-02-15T15:19:19.170Z,39.90
2019-02-15T15:21:50.835Z,29.70
2019-02-15T15:24:22.705Z,33.53
2019-02-15T15:26:54.325Z,35.37
2019-02-15T15:29:25.377Z,33.13
2019-02-15T15:31:56.758Z,32.93
2019-02-15T15:34:27.900Z,35.73
2019-02-15T15:37:01.125Z,40.83
2019-02-15T15:39:33.967Z,40.30
2019-02-15T15:42:05.740Z,34.80
2019-02-15T15:44:37.694Z,39.33
2019-02-15T15:47:09.357Z,40.07
2019-02-15T15:49:40.430Z,53.50
2019-02-15T15:52:11.767Z,47.10
2019-02-15T15:54:43.239Z,55.33
2019-02-15T15:57:14.470Z,38.87
2019-02-15T15:59:45.978Z,40.17
2019-02-15T16:02:18.492Z,43.83
2019-02-15T16:04:50.424Z,41.60
2019-02-15T16:07:22.110Z,42.73
2019-02-15T16:09:54.070Z,37.50
2019-02-15T16:12:25.847Z,41.53
2019-02-15T16:14:57.514Z,43.77
2019-02-15T16:17:30.708Z,57.83
2019-02-15T16:20:02.695Z,66.87
2019-02-15T16:22:36.266Z,68.30
2019-02-15T16:25:12.773Z,64.17
2019-02-15T16:27:44.426Z,70.23
2019-02-15T16:30:16.493Z,66.10
2019-02-15T16:32:48.148Z,77.63
2019-02-15T16:35:20.242Z,81.03
2019-02-15T16:37:52.546Z,72.27
2019-02-15T16:40:24.353Z,77.27
2019-02-15T16:42:58.281Z,62.77
2019-02-15T16:45:29.446Z,73.37
2019-02-15T16:48:03.446Z,68.73
2019-02-15T16:50:35.345Z,66.47
2019-02-15T16:53:08.908Z,57.53
2019-02-15T16:55:40.154Z,55.00
2019-02-15T16:58:14.633Z,61.43
2019-02-15T17:00:46.568Z,51.50
2019-02-15T17:03:17.945Z,54.13
2019-02-15T17:05:49.705Z,45.37
2019-02-15T17:08:21.672Z,52.77
2019-02-15T17:10:53.642Z,60.60
2019-02-15T17:13:25.477Z,51.50
2019-02-15T17:16:00.832Z,50.00
2019-02-15T17:18:35.001Z,55.70
2019-02-15T17:21:06.478Z,66.13
2019-02-15T17:23:38.129Z,54.90
2019-02-15T17:26:09.999Z,52.67
2019-02-15T17:28:41.861Z,63.90
2019-02-15T17:31:13.317Z,44.07
2019-02-15T17:33:47.410Z,41.67
2019-02-15T17:36:20.963Z,41.10
2019-02-15T17:38:52.196Z,40.83
2019-02-15T17:41:23.630Z,43.60
2019-02-15T17:43:54.880Z,45.77
2019-02-15T17:46:25.967Z,47.37
2019-02-15T17:49:00.852Z,45.43
2019-02-15T17:51:30.461Z,49.17
2019-02-15T17:54:04.878Z,53.47
2019-02-15T17:56:37.402Z,56.53
2019-02-15T17:59:08.785Z,46.03
2019-02-15T18:01:39.927Z,48.83
2019-02-15T18:04:11.634Z,44.33
2019-02-15T18:06:43.481Z,56.43
2019-02-15T18:09:15.336Z,55.80
2019-02-15T18:11:46.677Z,58.73
2019-02-15T18:14:18.195Z,58.73
2019-02-15T18:16:50.053Z,62.47
2019-02-15T18:19:25.761Z,68.47
2019-02-15T18:21:57.012Z,64.30
2019-02-15T18:24:28.608Z,69.07
2019-02-15T18:26:59.895Z,71.27
2019-02-15T18:29:32.802Z,77.87
2019-02-15T18:32:04.736Z,99.13
2019-02-15T18:34:36.262Z,85.23
2019-02-15T18:37:07.355Z,85.17
2019-02-15T18:39:41.777Z,78.23
2019-02-15T18:42:13.069Z,71.73
2019-02-15T18:44:45.730Z,75.63
2019-02-15T18:47:18.252Z,76.07
2019-02-15T18:49:56.273Z,78.73
2019-02-15T18:52:28.066Z,73.57
2019-02-15T18:54:59.124Z,69.90
2019-02-15T18:57:33.722Z,71.93
2019-02-15T19:03:16.395Z,71.03
2019-02-15T19:05:47.762Z,72.87
2019-02-15T19:08:19.546Z,67.97
2019-02-15T19:10:54.203Z,68.03
2019-02-15T19:13:27.446Z,64.70
2019-02-15T19:16:07.846Z,69.27
2019-02-15T19:18:39.245Z,60.10
2019-02-15T19:21:10.917Z,54.90
2019-02-15T19:23:44.620Z,60.30
2019-02-15T19:26:17.402Z,51.23
2019-02-15T19:28:57.803Z,56.77
2019-02-15T19:31:52.706Z,55.40
2019-02-15T19:34:27.902Z,54.17
2019-02-15T19:36:59.619Z,57.23
2019-02-15T19:39:31.206Z,55.40
2019-02-15T19:42:08.578Z,56.23
2019-02-15T19:44:39.977Z,57.73
2019-02-15T19:47:12.780Z,56.63
2019-02-15T19:49:47.284Z,50.77
2019-02-15T19:52:18.382Z,50.77
2019-02-15T19:54:50.222Z,52.40
2019-02-15T19:57:21.352Z,48.73
2019-02-15T19:59:54.202Z,50.33
2019-02-15T20:02:25.904Z,49.13
2019-02-15T20:04:57.338Z,50.27
2019-02-15T20:07:32.985Z,53.70
2019-02-15T20:10:04.734Z,56.03
2019-02-15T20:12:36.569Z,52.73
2019-02-15T20:15:11.135Z,58.47
2019-02-15T20:17:43.096Z,57.20
2019-02-15T20:20:14.963Z,56.97
2019-02-15T20:22:46.691Z,54.57
2019-02-15T20:25:18.795Z,59.00
2019-02-15T20:27:51.626Z,53.70
2019-02-15T20:30:23.561Z,50.90
2019-02-15T20:32:55.114Z,49.97
2019-02-15T20:35:26.840Z,47.47
2019-02-15T20:37:58.700Z,49.83
2019-02-15T20:40:30.542Z,50.87
2019-02-15T20:43:02.288Z,47.43
2019-02-15T20:45:33.929Z,47.13
2019-02-15T20:48:11.197Z,48.40
2019-02-15T20:50:38.738Z,42.80
2019-02-15T20:53:09.796Z,40.33
2019-02-15T20:55:41.056Z,40.27
2019-02-15T20:58:12.211Z,43.33
2019-02-15T21:00:43.950Z,36.27
2019-02-15T21:03:15.636Z,35.47
2019-02-15T21:05:46.705Z,31.90
2019-02-15T21:08:17.748Z,32.73
2019-02-15T21:10:55.240Z,28.07
2019-02-15T21:13:21.572Z,32.07
2019-02-15T21:15:52.901Z,32.03
2019-02-15T21:18:23.866Z,32.47
2019-02-15T21:20:55.485Z,29.77
2019-02-15T21:23:27.372Z,30.97
2019-02-15T21:25:58.634Z,30.87
2019-02-15T21:28:29.622Z,33.17
2019-02-15T21:31:00.917Z,33.13
2019-02-15T21:33:32.104Z,35.00
2019-02-15T21:36:03.317Z,38.30
2019-02-15T21:38:34.736Z,44.67
2019-02-15T21:41:07.106Z,35.77
2019-02-15T21:43:38.211Z,44.17
2019-02-15T21:46:09.521Z,33.53
2019-02-15T21:48:40.622Z,30.97
2019-02-15T21:51:12.001Z,28.80
2019-02-15T21:53:43.176Z,30.23
2019-02-15T21:56:14.248Z,30.83
2019-02-15T21:58:45.347Z,29.67
2019-02-15T22:01:16.536Z,30.93
2019-02-15T22:03:47.965Z,32.93
2019-02-15T22:06:19.090Z,31.57
2019-02-15T22:08:50.369Z,34.47
2019-02-15T22:11:21.564Z,32.93
2019-02-15T22:13:52.508Z,30.90
2019-02-15T22:16:23.558Z,30.17
2019-02-15T22:18:54.563Z,33.07
2019-02-15T22:21:25.617Z,34.13
2019-02-15T22:23:57.382Z,34.00
2019-02-15T22:26:28.753Z,33.67
2019-02-15T22:28:59.866Z,32.47
2019-02-15T22:31:31.683Z,30.73
2019-02-15T22:34:02.867Z,33.30
2019-02-15T22:36:33.972Z,31.77
2019-02-15T22:39:05.904Z,33.07
2019-02-15T22:41:37.903Z,36.10
2019-02-15T22:44:08.804Z,30.83
2019-02-15T22:46:39.754Z,32.13
2019-02-15T22:49:13.797Z,35.23
2019-02-15T22:51:44.782Z,32.77
2019-02-15T22:54:15.698Z,33.83
2019-02-15T22:56:46.714Z,34.37
2019-02-15T22:59:20.998Z,32.80
2019-02-15T23:01:53.512Z,36.20
2019-02-15T23:04:24.931Z,37.53
2019-02-15T23:06:56.058Z,35.30
2019-02-15T23:09:27.021Z,35.43
2019-02-15T23:11:58.218Z,35.33
2019-02-15T23:14:29.443Z,37.07
2019-02-15T23:17:03.433Z,33.97
2019-02-15T23:19:34.533Z,35.60
2019-02-15T23:22:06.231Z,36.90
2019-02-15T23:24:40.202Z,36.60
2019-02-15T23:27:13.404Z,38.40
2019-02-15T23:29:44.441Z,39.10
2019-02-15T23:32:15.459Z,36.90
2019-02-15T23:34:46.608Z,39.83
2019-02-15T23:37:17.736Z,42.20
2019-02-15T23:39:48.767Z,39.87
2019-02-15T23:42:20.489Z,41.73
2019-02-15T23:44:52.281Z,41.67
2019-02-15T23:47:23.619Z,43.93
2019-02-15T23:49:55.704Z,40.40
2019-02-15T23:52:27.407Z,40.97
2019-02-15T23:54:58.587Z,39.87
2019-02-15T23:57:29.602Z,38.57
